Richmond, Massachusetts
Current Conditions -  °F | °C
As of 1:54 AM on Thursday 23 Oct 2014 (Local Time) from KPSF Reporting Station
Light Rain Light Rain  
Wind Chill: 44°   Ceiling: 1600
Heat Index: 47°   Visibility: 6mi
Dew Point: 45°   Wind: 7mph
Humidity: 93%   Direction: 40°NE
Pressure: 29.83"   Gusts: NA
Location:  42.37°N, 73.37°W
Report Text: KPSF 230554Z AUTO 04006KT 6SM -RA BR BKN016 OVC042 08/07 A2983 RMK AO2 SLP095 P0020 60045 T00830072 10089 20083 58007
Loading
Personal Weather Stations






























Interactive Weather Map
Tropical Storm Tracking
New forecast layout! Learn more

10-Day Weather Forecast

Advertisements
Track Severe Weather on mobile